Time,TemperatureF,DewpointF,PressureIn,WindDirection,WindDirectionDegrees,WindSpeedMPH,WindSpeedGustMPH,Humidity,HourlyPrecipIn,Conditions,Clouds,dailyrainin,SolarRadiationWatts/m^2,SoftwareType,DateUTC
2013-03-11 00:04:00,45.7,43.8,29.47,WNW,292,2.3,2.3,93,0.00,CLR,,0.03,0.0,WeatherDisplay:10.37,2013-03-10 23:04:00,
2013-03-11 00:09:00,45.7,43.8,29.50,WNW,292,1.2,1.2,93,0.00,CLR,,0.03,0.0,WeatherDisplay:10.37,2013-03-10 23:09:00,
2013-03-11 00:14:00,45.5,43.6,29.50,NNW,338,1.4,1.6,93,0.00,CLR,,0.03,0.0,WeatherDisplay:10.37,2013-03-10 23:14:00,
2013-03-11 00:19:00,45.5,43.6,29.50,NNW,338,0.0,0.0,93,0.00,CLR,,0.03,0.0,WeatherDisplay:10.37,2013-03-10 23:19:00,
2013-03-11 00:24:00,45.5,43.6,29.50,WNW,292,1.2,0.0,93,0.00,CLR,,0.03,0.0,WeatherDisplay:10.37,2013-03-10 23:24:00,
2013-03-11 00:29:00,45.5,43.6,29.50,NNW,338,0.0,0.9,93,0.00,CLR,,0.03,0.0,WeatherDisplay:10.37,2013-03-10 23:29:00,
2013-03-11 00:34:00,45.5,43.6,29.50,NNW,338,0.0,0.0,93,0.00,CLR,,0.03,0.0,WeatherDisplay:10.37,2013-03-10 23:34:00,
2013-03-11 00:39:00,45.5,43.6,29.50,NNE,22,0.0,0.0,93,0.00,CLR,,0.03,0.0,WeatherDisplay:10.37,2013-03-10 23:39:00,
2013-03-11 00:44:00,45.5,43.6,29.50,NNE,22,0.0,0.0,93,0.00,CLR,,0.03,0.0,WeatherDisplay:10.37,2013-03-10 23:44:00,
2013-03-11 00:49:00,45.3,43.4,29.50,WNW,292,0.0,0.0,93,0.00,CLR,,0.03,0.0,WeatherDisplay:10.37,2013-03-10 23:49:00,
2013-03-11 00:54:00,45.5,43.6,29.53,NNW,338,1.2,1.2,93,0.00,CLR,,0.03,0.0,WeatherDisplay:10.37,2013-03-10 23:54:00,
2013-03-11 00:59:00,45.3,43.4,29.53,NW,315,2.6,2.6,93,0.00,CLR,,0.03,0.0,WeatherDisplay:10.37,2013-03-10 23:59:00,
2013-03-11 01:04:00,45.3,43.4,29.53,WNW,292,2.3,2.3,93,0.00,CLR,,0.03,0.0,WeatherDisplay:10.37,2013-03-11 00:04:00,
2013-03-11 01:09:00,45.5,43.6,29.50,WNW,292,1.4,0.0,93,0.00,CLR,,0.03,0.0,WeatherDisplay:10.37,2013-03-11 00:09:00,
2013-03-11 01:14:00,45.3,43.4,29.50,WNW,292,2.6,2.6,93,0.00,CLR,,0.03,0.0,WeatherDisplay:10.37,2013-03-11 00:14:00,
2013-03-11 01:19:00,45.3,43.4,29.50,WNW,292,2.3,2.3,93,0.00,CLR,,0.03,0.0,WeatherDisplay:10.37,2013-03-11 00:19:00,
2013-03-11 01:24:00,45.3,43.4,29.47,NNE,22,1.2,0.0,93,0.00,CLR,,0.03,0.0,WeatherDisplay:10.37,2013-03-11 00:24:00,
2013-03-11 01:29:00,45.1,43.2,29.47,WNW,292,1.4,1.4,93,0.00,CLR,,0.03,0.0,WeatherDisplay:10.37,2013-03-11 00:29:00,
2013-03-11 01:34:00,45.0,43.1,29.47,NNE,22,2.3,0.0,93,0.00,CLR,,0.03,0.0,WeatherDisplay:10.37,2013-03-11 00:34:00,
2013-03-11 01:39:00,44.8,42.9,29.50,NNE,22,2.3,2.3,93,0.00,CLR,,0.03,0.0,WeatherDisplay:10.37,2013-03-11 00:39:00,
2013-03-11 01:44:00,44.6,42.7,29.50,NNW,338,0.0,0.0,93,0.00,CLR,,0.03,0.0,WeatherDisplay:10.37,2013-03-11 00:44:00,
2013-03-11 01:49:00,44.2,42.3,29.50,NNW,338,0.0,0.0,93,0.00,CLR,,0.03,0.0,WeatherDisplay:10.37,2013-03-11 00:49:00,
2013-03-11 01:54:00,44.1,42.2,29.50,NNE,22,0.0,0.0,93,0.00,CLR,,0.03,0.0,WeatherDisplay:10.37,2013-03-11 00:54:00,
2013-03-11 01:59:00,43.7,41.8,29.50,NNW,338,2.3,2.3,93,0.00,CLR,,0.03,0.0,WeatherDisplay:10.37,2013-03-11 00:59:00,
2013-03-11 02:04:00,43.3,41.5,29.50,NNW,338,1.2,0.0,93,0.00,CLR,,0.03,0.0,WeatherDisplay:10.37,2013-03-11 01:04:00,
2013-03-11 02:09:00,43.2,41.6,29.50,WNW,292,1.2,0.0,94,0.00,CLR,,0.03,0.0,WeatherDisplay:10.37,2013-03-11 01:09:00,
2013-03-11 02:14:00,42.8,41.2,29.50,NW,315,1.2,0.0,94,0.00,CLR,,0.03,0.0,WeatherDisplay:10.37,2013-03-11 01:14:00,
2013-03-11 02:19:00,42.6,41.0,29.50,NNW,338,2.3,2.3,94,0.00,CLR,,0.03,0.0,WeatherDisplay:10.37,2013-03-11 01:19:00,
2013-03-11 02:24:00,42.4,41.1,29.50,NNW,338,2.3,2.3,95,0.00,CLR,,0.03,0.0,WeatherDisplay:10.37,2013-03-11 01:24:00,
2013-03-11 02:29:00,42.4,41.1,29.50,NNW,338,1.2,1.2,95,0.00,CLR,,0.03,0.0,WeatherDisplay:10.37,2013-03-11 01:29:00,
2013-03-11 02:34:00,42.3,41.2,29.50,NNW,338,0.0,0.0,96,0.00,CLR,,0.03,0.0,WeatherDisplay:10.37,2013-03-11 01:34:00,
2013-03-11 02:39:00,42.1,40.8,29.50,NNW,338,0.0,0.0,95,0.00,CLR,,0.03,0.0,WeatherDisplay:10.37,2013-03-11 01:39:00,
2013-03-11 02:44:00,41.9,40.6,29.50,NNW,338,0.0,0.0,95,0.00,CLR,,0.03,0.0,WeatherDisplay:10.37,2013-03-11 01:44:00,
2013-03-11 02:49:00,41.7,40.4,29.50,NNW,338,0.0,0.0,95,0.00,CLR,,0.03,0.0,WeatherDisplay:10.37,2013-03-11 01:49:00,
2013-03-11 02:54:00,41.4,40.0,29.47,NNE,22,1.2,0.0,95,0.00,CLR,,0.03,0.0,WeatherDisplay:10.37,2013-03-11 01:54:00,
2013-03-11 02:59:00,41.2,39.9,29.47,NNE,22,2.3,2.3,95,0.00,CLR,,0.03,0.0,WeatherDisplay:10.37,2013-03-11 01:59:00,
2013-03-11 03:04:00,41.2,39.9,29.47,NNW,338,0.9,0.9,95,0.00,CLR,,0.03,0.0,WeatherDisplay:10.37,2013-03-11 02:04:00,
2013-03-11 03:09:00,41.0,39.9,29.50,North,0,0.0,0.0,96,0.00,CLR,,0.03,0.0,WeatherDisplay:10.37,2013-03-11 02:09:00,
2013-03-11 03:14:00,40.8,39.8,29.50,NE,45,0.0,0.0,96,0.00,CLR,,0.03,0.0,WeatherDisplay:10.37,2013-03-11 02:14:00,
2013-03-11 03:19:00,40.6,39.6,29.50,NNE,22,0.0,0.0,96,0.00,CLR,,0.03,0.0,WeatherDisplay:10.37,2013-03-11 02:19:00,
2013-03-11 03:24:00,40.5,39.4,29.47,North,0,1.6,0.0,96,0.00,CLR,,0.03,0.0,WeatherDisplay:10.37,2013-03-11 02:24:00,
2013-03-11 03:29:00,40.5,39.4,29.47,NNE,22,1.2,0.0,96,0.00,CLR,,0.03,0.0,WeatherDisplay:10.37,2013-03-11 02:29:00,
2013-03-11 03:34:00,40.5,39.7,29.47,NNW,338,0.0,0.0,97,0.00,CLR,,0.03,0.0,WeatherDisplay:10.37,2013-03-11 02:34:00,
2013-03-11 03:39:00,40.5,39.7,29.50,NNW,338,2.2,0.0,97,0.00,CLR,,0.03,0.0,WeatherDisplay:10.37,2013-03-11 02:39:00,
2013-03-11 03:44:00,40.3,39.5,29.50,NNW,338,0.0,0.0,97,0.00,CLR,,0.03,0.0,WeatherDisplay:10.37,2013-03-11 02:44:00,
2013-03-11 03:49:00,40.3,39.5,29.50,NNW,338,0.0,0.0,97,0.00,CLR,,0.03,0.0,WeatherDisplay:10.37,2013-03-11 02:49:00,
2013-03-11 03:54:00,40.3,39.8,29.50,NW,315,2.3,2.3,98,0.00,CLR,,0.03,0.0,WeatherDisplay:10.37,2013-03-11 02:54:00,
2013-03-11 03:59:00,40.5,39.9,29.50,NNW,338,2.3,2.3,98,0.00,CLR,,0.03,0.0,WeatherDisplay:10.37,2013-03-11 02:59:00,
2013-03-11 04:04:00,40.5,39.9,29.50,NNW,338,2.4,2.4,98,0.00,CLR,,0.03,0.0,WeatherDisplay:10.37,2013-03-11 03:04:00,
2013-03-11 04:09:00,41.0,40.5,29.50,NNW,338,3.5,3.5,98,0.00,CLR,,0.03,0.0,WeatherDisplay:10.37,2013-03-11 03:09:00,
2013-03-11 04:14:00,41.2,40.7,29.50,NNW,338,2.6,2.6,98,0.00,CLR,,0.03,0.0,WeatherDisplay:10.37,2013-03-11 03:14:00,
2013-03-11 04:19:00,41.5,41.0,29.50,WNW,292,2.3,2.9,98,0.00,CLR,,0.03,0.0,WeatherDisplay:10.37,2013-03-11 03:19:00,
2013-03-11 04:25:00,41.7,41.2,29.50,NNW,338,2.3,2.3,98,0.00,CLR,,0.03,0.0,WeatherDisplay:10.37,2013-03-11 03:25:00,
2013-03-11 04:29:00,41.9,41.4,29.50,NNW,338,2.3,2.3,98,0.00,CLR,,0.03,0.0,WeatherDisplay:10.37,2013-03-11 03:29:00,
2013-03-11 04:34:00,42.1,41.6,29.50,WNW,292,2.3,2.3,98,0.00,CLR,,0.03,0.0,WeatherDisplay:10.37,2013-03-11 03:34:00,
2013-03-11 04:39:00,42.3,41.7,29.50,WNW,292,2.3,2.3,98,0.00,CLR,,0.03,0.0,WeatherDisplay:10.37,2013-03-11 03:39:00,
2013-03-11 04:44:00,42.3,41.7,29.50,NNW,338,2.3,2.3,98,0.00,CLR,,0.03,0.0,WeatherDisplay:10.37,2013-03-11 03:44:00,
2013-03-11 04:49:00,42.3,41.7,29.50,NNW,338,2.4,2.4,98,0.00,CLR,,0.03,0.0,WeatherDisplay:10.37,2013-03-11 03:49:00,
2013-03-11 04:54:00,42.1,41.6,29.50,NNW,338,2.9,2.9,98,0.00,CLR,,0.03,0.0,WeatherDisplay:10.37,2013-03-11 03:54:00,
2013-03-11 04:59:00,42.1,41.3,29.50,NNW,338,2.4,2.4,97,0.00,CLR,,0.03,0.0,WeatherDisplay:10.37,2013-03-11 03:59:00,
2013-03-11 05:00:00,42.1,41.3,29.50,NNW,338,2.4,2.4,97,0.00,CLR,,0.03,0.0,WeatherDisplay:10.37,2013-03-11 04:00:00,
2013-03-11 05:05:00,41.9,41.1,29.50,NNE,22,2.3,2.3,97,0.00,CLR,,0.03,0.0,WeatherDisplay:10.37,2013-03-11 04:05:00,
2013-03-11 05:10:00,41.7,40.9,29.47,WNW,292,1.2,1.2,97,0.00,CLR,,0.03,0.0,WeatherDisplay:10.37,2013-03-11 04:10:00,
2013-03-11 05:15:00,41.5,40.5,29.47,North,0,0.9,0.0,96,0.00,CLR,,0.03,0.0,WeatherDisplay:10.37,2013-03-11 04:15:00,
2013-03-11 05:20:00,41.4,40.3,29.47,NNE,22,2.3,2.3,96,0.00,CLR,,0.03,0.0,WeatherDisplay:10.37,2013-03-11 04:20:00,
2013-03-11 05:25:00,41.2,40.1,29.50,NNE,22,2.3,2.3,96,0.00,CLR,,0.03,0.0,WeatherDisplay:10.37,2013-03-11 04:25:00,
2013-03-11 05:30:00,41.0,39.9,29.50,North,0,2.3,2.3,96,0.00,CLR,,0.03,0.0,WeatherDisplay:10.37,2013-03-11 04:30:00,
2013-03-11 05:35:00,40.6,39.6,29.50,NE,45,1.6,1.6,96,0.00,CLR,,0.03,0.0,WeatherDisplay:10.37,2013-03-11 04:35:00,
2013-03-11 05:40:00,40.5,39.4,29.47,NNE,22,2.3,2.3,96,0.00,CLR,,0.03,0.0,WeatherDisplay:10.37,2013-03-11 04:40:00,
2013-03-11 05:45:00,40.3,39.2,29.47,NNW,338,2.3,2.3,96,0.00,CLR,,0.03,0.0,WeatherDisplay:10.37,2013-03-11 04:45:00,
2013-03-11 05:50:00,40.3,39.5,29.47,NW,315,3.5,3.5,97,0.00,CLR,,0.03,0.0,WeatherDisplay:10.37,2013-03-11 04:50:00,
2013-03-11 05:55:00,40.3,39.5,29.50,WNW,292,4.0,4.0,97,0.00,CLR,,0.03,0.0,WeatherDisplay:10.37,2013-03-11 04:55:00,
2013-03-11 06:00:00,40.5,39.9,29.50,North,0,2.3,2.3,98,0.00,OVC,,0.03,0.0,WeatherDisplay:10.37,2013-03-11 05:00:00,
2013-03-11 06:05:00,40.5,39.9,29.50,NNE,22,4.3,4.3,98,0.00,OVC,,0.03,0.0,WeatherDisplay:10.37,2013-03-11 05:05:00,
2013-03-11 06:10:00,40.6,40.1,29.50,North,0,2.3,2.3,98,0.00,OVC,,0.03,0.0,WeatherDisplay:10.37,2013-03-11 05:10:00,
2013-03-11 06:15:00,40.6,40.1,29.50,NNE,22,1.2,1.2,98,0.00,OVC,,0.03,0.0,WeatherDisplay:10.37,2013-03-11 05:15:00,
2013-03-11 06:20:00,40.6,40.1,29.50,ENE,68,1.4,1.4,98,0.00,OVC,,0.03,0.0,WeatherDisplay:10.37,2013-03-11 05:20:00,
2013-03-11 06:25:00,40.6,40.1,29.53,ENE,68,0.0,0.0,98,0.00,OVC,,0.03,0.0,WeatherDisplay:10.37,2013-03-11 05:25:00,
2013-03-11 06:30:00,40.6,40.1,29.53,ESE,112,0.0,0.0,98,0.00,OVC,,0.03,2.6,WeatherDisplay:10.37,2013-03-11 05:30:00,
2013-03-11 06:35:00,40.3,39.8,29.53,East,90,0.0,0.0,98,0.00,OVC,,0.03,5.3,WeatherDisplay:10.37,2013-03-11 05:35:00,
2013-03-11 06:40:00,40.3,39.8,29.50,NNE,22,0.0,0.0,98,0.00,OVC,,0.03,7.8,WeatherDisplay:10.37,2013-03-11 05:40:00,
2013-03-11 06:45:00,40.1,39.6,29.50,NNE,22,0.0,0.0,98,0.00,OVC,,0.03,10.4,WeatherDisplay:10.37,2013-03-11 05:45:00,
2013-03-11 06:50:00,39.9,39.4,29.50,ESE,112,0.0,0.0,98,0.00,OVC,,0.03,13.0,WeatherDisplay:10.37,2013-03-11 05:50:00,
2013-03-11 06:55:00,39.9,39.4,29.53,ENE,68,0.0,0.0,98,0.00,OVC,,0.03,15.7,WeatherDisplay:10.37,2013-03-11 05:55:00,
2013-03-11 07:00:00,40.1,39.6,29.53,SSE,158,0.0,0.0,98,0.00,RA,,0.00,18.3,WeatherDisplay:10.37,2013-03-11 06:00:00,
2013-03-11 07:05:00,40.5,39.9,29.53,SSW,202,0.0,0.0,98,0.00,RA,,0.00,21.0,WeatherDisplay:10.37,2013-03-11 06:05:00,
2013-03-11 07:10:00,40.5,39.9,29.56,WSW,248,0.0,0.0,98,0.00,OVC,,0.00,23.6,WeatherDisplay:10.37,2013-03-11 06:10:00,
2013-03-11 07:15:00,40.6,40.1,29.56,WSW,248,0.0,0.0,98,0.00,OVC,,0.00,26.2,WeatherDisplay:10.37,2013-03-11 06:15:00,
2013-03-11 07:20:00,41.2,40.7,29.56,SSW,202,0.0,0.0,98,0.00,OVC,,0.00,28.9,WeatherDisplay:10.37,2013-03-11 06:20:00,
2013-03-11 07:25:00,41.7,41.2,29.53,West,270,0.0,0.0,98,0.00,OVC,,0.00,31.5,WeatherDisplay:10.37,2013-03-11 06:25:00,
2013-03-11 07:30:00,42.3,41.7,29.53,South,180,0.0,0.0,98,0.00,OVC,,0.00,34.2,WeatherDisplay:10.37,2013-03-11 06:30:00,
2013-03-11 07:35:00,42.8,42.3,29.53,South,180,0.0,0.0,98,0.00,OVC,,0.00,36.8,WeatherDisplay:10.37,2013-03-11 06:35:00,
2013-03-11 07:40:00,43.5,43.0,29.56,WNW,292,1.2,0.0,98,0.00,OVC,,0.00,39.4,WeatherDisplay:10.37,2013-03-11 06:40:00,
2013-03-11 07:45:00,44.2,43.7,29.56,NNW,338,2.3,2.3,98,0.00,OVC,,0.00,41.9,WeatherDisplay:10.37,2013-03-11 06:45:00,
2013-03-11 07:50:00,44.8,44.3,29.56,North,0,3.3,3.3,98,0.00,OVC,,0.00,44.5,WeatherDisplay:10.37,2013-03-11 06:50:00,
2013-03-11 07:55:00,45.1,44.6,29.56,WNW,292,2.3,0.0,98,0.00,OVC,,0.00,47.2,WeatherDisplay:10.37,2013-03-11 06:55:00,
2013-03-11 08:00:00,45.7,45.1,29.56,NE,45,3.1,3.1,98,0.00,OVC,,0.00,49.8,WeatherDisplay:10.37,2013-03-11 07:00:00,
2013-03-11 08:05:00,46.0,45.5,29.56,NNW,338,2.3,2.3,98,0.00,OVC,,0.00,52.3,WeatherDisplay:10.37,2013-03-11 07:05:00,
2013-03-11 08:10:00,46.2,45.4,29.53,NNW,338,2.3,2.3,97,0.00,OVC,,0.00,54.9,WeatherDisplay:10.37,2013-03-11 07:10:00,
2013-03-11 08:15:00,46.4,45.3,29.53,ESE,112,1.2,0.0,96,0.00,OVC,,0.00,57.4,WeatherDisplay:10.37,2013-03-11 07:15:00,
2013-03-11 08:20:00,46.8,45.4,29.53,NW,315,2.3,0.0,95,0.00,OVC,,0.00,59.9,WeatherDisplay:10.37,2013-03-11 07:20:00,
2013-03-11 08:25:00,46.9,45.3,29.53,NNW,338,2.3,2.3,94,0.00,OVC,,0.00,62.4,WeatherDisplay:10.37,2013-03-11 07:25:00,
2013-03-11 08:30:00,47.1,45.5,29.53,North,0,3.5,3.5,94,0.00,OVC,,0.00,64.8,WeatherDisplay:10.37,2013-03-11 07:30:00,
2013-03-11 08:35:00,47.3,45.1,29.53,NW,315,3.5,3.5,92,0.00,OVC,,0.00,67.3,WeatherDisplay:10.37,2013-03-11 07:35:00,
2013-03-11 08:40:00,47.3,45.1,29.53,WSW,248,0.0,0.0,92,0.00,OVC,,0.00,69.8,WeatherDisplay:10.37,2013-03-11 07:40:00,
2013-03-11 08:45:00,47.7,45.2,29.53,SW,225,0.0,0.0,91,0.00,OVC,,0.00,72.1,WeatherDisplay:10.37,2013-03-11 07:45:00,
2013-03-11 08:50:00,47.7,45.2,29.53,NNW,338,0.0,0.0,91,0.00,OVC,,0.00,74.4,WeatherDisplay:10.37,2013-03-11 07:50:00,
2013-03-11 08:55:00,48.0,45.8,29.50,WSW,248,2.3,2.3,92,0.00,OVC,,0.00,76.7,WeatherDisplay:10.37,2013-03-11 07:55:00,
2013-03-11 09:00:00,48.2,45.7,29.50,WSW,248,3.1,0.0,91,0.00,OVC,,0.00,79.0,WeatherDisplay:10.37,2013-03-11 08:00:00,
2013-03-11 09:05:00,48.0,45.5,29.50,South,180,2.3,2.4,91,0.00,OVC,,0.00,81.3,WeatherDisplay:10.37,2013-03-11 08:05:00,
2013-03-11 09:10:00,47.8,45.3,29.56,SSW,202,3.5,3.5,91,0.00,OVC,,0.00,83.7,WeatherDisplay:10.37,2013-03-11 08:10:00,
2013-03-11 09:15:00,47.7,45.5,29.56,SSW,202,3.5,3.5,92,0.00,OVC,,0.00,85.8,WeatherDisplay:10.37,2013-03-11 08:15:00,
2013-03-11 09:20:00,47.5,45.0,29.56,WSW,248,2.4,2.4,91,0.00,OVC,,0.00,87.9,WeatherDisplay:10.37,2013-03-11 08:20:00,
2013-03-11 09:25:00,47.5,45.0,29.53,WSW,248,4.6,4.6,91,0.00,OVC,,0.00,89.9,WeatherDisplay:10.37,2013-03-11 08:25:00,
2013-03-11 09:30:00,47.7,45.2,29.53,SSW,202,3.5,3.5,91,0.00,OVC,,0.00,92.1,WeatherDisplay:10.37,2013-03-11 08:30:00,
2013-03-11 09:35:00,48.0,45.5,29.53,West,270,5.8,5.8,91,0.00,OVC,,0.00,94.0,WeatherDisplay:10.37,2013-03-11 08:35:00,
2013-03-11 09:40:00,48.4,45.3,29.53,WSW,248,3.5,3.5,89,0.00,OVC,,0.00,96.0,WeatherDisplay:10.37,2013-03-11 08:40:00,
2013-03-11 09:45:00,48.7,45.0,29.53,SW,225,4.6,4.6,87,0.00,OVC,,0.00,97.8,WeatherDisplay:10.37,2013-03-11 08:45:00,
2013-03-11 09:50:00,48.9,45.2,29.53,WSW,248,2.4,2.6,87,0.00,OVC,,0.00,99.8,WeatherDisplay:10.37,2013-03-11 08:50:00,
2013-03-11 09:55:00,49.1,45.4,29.53,South,180,1.2,0.0,87,0.00,OVC,,0.00,101.5,WeatherDisplay:10.37,2013-03-11 08:55:00,
2013-03-11 10:00:00,49.6,44.7,29.53,NNW,338,4.6,4.6,83,0.00,OVC,,0.00,103.3,WeatherDisplay:10.37,2013-03-11 09:00:00,
2013-03-11 10:05:00,50.2,44.9,29.53,WNW,292,4.6,4.6,82,0.00,OVC,,0.00,105.1,WeatherDisplay:10.37,2013-03-11 09:05:00,
2013-03-11 10:10:00,50.4,45.1,29.53,SSW,202,3.5,3.5,82,0.00,OVC,,0.00,106.8,WeatherDisplay:10.37,2013-03-11 09:10:00,
2013-03-11 10:15:00,50.7,44.1,29.53,NW,315,3.5,3.5,78,0.00,OVC,,0.00,108.2,WeatherDisplay:10.37,2013-03-11 09:15:00,
2013-03-11 10:20:00,51.3,44.0,29.53,WSW,248,8.1,8.1,76,0.00,OVC,,0.00,109.9,WeatherDisplay:10.37,2013-03-11 09:20:00,
2013-03-11 10:25:00,51.6,44.6,29.50,WSW,248,3.6,3.6,77,0.00,OVC,,0.00,111.4,WeatherDisplay:10.37,2013-03-11 09:25:00,
2013-03-11 10:30:00,51.8,43.4,29.50,WNW,292,3.5,3.5,73,0.00,OVC,,0.00,112.7,WeatherDisplay:10.37,2013-03-11 09:30:00,
2013-03-11 10:35:00,52.2,43.8,29.50,NNW,338,3.5,3.6,73,0.00,OVC,,0.00,114.0,WeatherDisplay:10.37,2013-03-11 09:35:00,
2013-03-11 10:40:00,52.3,43.9,29.56,NW,315,4.6,4.6,73,0.00,OVC,,0.00,115.3,WeatherDisplay:10.37,2013-03-11 09:40:00,
2013-03-11 10:45:00,52.7,43.6,29.56,WNW,292,6.9,6.9,71,0.00,OVC,,0.00,116.7,WeatherDisplay:10.37,2013-03-11 09:45:00,
2013-03-11 10:50:00,53.1,42.8,29.56,SSW,202,4.6,4.6,68,0.00,OVC,,0.00,117.8,WeatherDisplay:10.37,2013-03-11 09:50:00,
2013-03-11 10:55:00,53.1,44.3,29.53,WNW,292,4.6,4.6,72,0.00,OVC,,0.00,118.8,WeatherDisplay:10.37,2013-03-11 09:55:00,
2013-03-11 11:00:00,53.4,43.1,29.53,WSW,248,4.5,4.5,68,0.00,OVC,,0.00,120.0,WeatherDisplay:10.37,2013-03-11 10:00:00,
2013-03-11 11:05:00,54.1,42.6,29.53,SSW,202,3.6,3.6,65,0.00,OVC,,0.00,120.9,WeatherDisplay:10.37,2013-03-11 10:05:00,
2013-03-11 11:10:00,54.0,40.8,29.50,WSW,248,5.8,5.8,61,0.00,OVC,,0.00,121.8,WeatherDisplay:10.37,2013-03-11 10:10:00,
2013-03-11 11:15:00,54.5,40.9,29.50,WSW,248,8.1,8.1,60,0.00,OVC,,0.00,122.6,WeatherDisplay:10.37,2013-03-11 10:15:00,
2013-03-11 11:20:00,54.9,42.9,29.50,WNW,292,6.0,6.0,64,0.00,OVC,,0.00,123.4,WeatherDisplay:10.37,2013-03-11 10:20:00,
2013-03-11 11:25:00,55.0,42.7,29.50,WNW,292,10.4,10.4,63,0.00,OVC,,0.00,124.1,WeatherDisplay:10.37,2013-03-11 10:25:00,
2013-03-11 11:30:00,55.0,41.0,29.50,WNW,292,10.4,10.4,59,0.00,OVC,,0.00,124.7,WeatherDisplay:10.37,2013-03-11 10:30:00,
2013-03-11 11:35:00,54.9,42.5,29.50,West,270,8.1,8.1,63,0.00,OVC,,0.00,125.2,WeatherDisplay:10.37,2013-03-11 10:35:00,
2013-03-11 11:40:00,54.9,43.3,29.53,WNW,292,6.9,6.9,65,0.00,OVC,,0.00,125.7,WeatherDisplay:10.37,2013-03-11 10:40:00,
2013-03-11 11:45:00,55.0,42.3,29.53,WNW,292,10.4,10.4,62,0.00,OVC,,0.00,126.2,WeatherDisplay:10.37,2013-03-11 10:45:00,
2013-03-11 11:50:00,54.5,41.7,29.53,West,270,3.5,3.6,62,0.00,OVC,,0.00,126.6,WeatherDisplay:10.37,2013-03-11 10:50:00,
2013-03-11 11:55:00,54.7,41.9,29.56,West,270,6.9,6.9,62,0.00,OVC,,0.00,126.7,WeatherDisplay:10.37,2013-03-11 10:55:00,
2013-03-11 12:00:00,55.2,42.0,29.56,WNW,292,9.2,9.2,61,0.00,OVC,,0.00,127.0,WeatherDisplay:10.37,2013-03-11 11:00:00,
2013-03-11 12:05:00,55.2,41.1,29.56,WNW,292,6.9,6.9,59,0.00,OVC,,0.00,127.2,WeatherDisplay:10.37,2013-03-11 11:05:00,
2013-03-11 12:10:00,55.8,41.6,29.53,WNW,292,6.9,6.9,59,0.00,OVC,,0.00,127.2,WeatherDisplay:10.37,2013-03-11 11:10:00,
2013-03-11 12:15:00,55.8,38.4,29.53,WNW,292,6.0,6.0,52,0.00,OVC,,0.00,127.2,WeatherDisplay:10.37,2013-03-11 11:15:00,
2013-03-11 12:20:00,55.8,39.8,29.53,WNW,292,8.1,8.1,55,0.00,OVC,,0.00,127.0,WeatherDisplay:10.37,2013-03-11 11:20:00,
2013-03-11 12:25:00,55.2,40.7,29.53,WNW,292,9.2,9.2,58,0.00,OVC,,0.00,126.9,WeatherDisplay:10.37,2013-03-11 11:25:00,
2013-03-11 12:30:00,55.6,40.6,29.53,WNW,292,5.8,5.8,57,0.00,OVC,,0.00,126.7,WeatherDisplay:10.37,2013-03-11 11:30:00,
2013-03-11 12:35:00,55.6,40.6,29.53,WNW,292,5.8,5.8,57,0.00,OVC,,0.00,126.4,WeatherDisplay:10.37,2013-03-11 11:35:00,
2013-03-11 12:40:00,55.8,40.3,29.53,NNW,338,9.2,9.2,56,0.00,OVC,,0.00,126.1,WeatherDisplay:10.37,2013-03-11 11:40:00,
2013-03-11 12:45:00,55.8,41.6,29.53,WNW,292,5.8,5.8,59,0.00,OVC,,0.00,125.6,WeatherDisplay:10.37,2013-03-11 11:45:00,
2013-03-11 12:50:00,55.9,41.4,29.53,NNW,338,6.0,6.0,58,0.00,OVC,,0.00,125.1,WeatherDisplay:10.37,2013-03-11 11:50:00,
2013-03-11 12:55:00,56.3,42.1,29.50,WSW,248,4.0,4.0,59,0.00,OVC,,0.00,124.4,WeatherDisplay:10.37,2013-03-11 11:55:00,
2013-03-11 13:00:00,56.7,41.6,29.50,WNW,292,4.6,4.6,57,0.00,OVC,,0.00,123.8,WeatherDisplay:10.37,2013-03-11 12:00:00,
2013-03-11 13:05:00,56.8,41.8,29.50,ENE,68,3.5,3.5,57,0.00,OVC,,0.00,123.1,WeatherDisplay:10.37,2013-03-11 12:05:00,
2013-03-11 13:10:00,57.0,41.9,29.53,West,270,5.6,5.6,57,0.00,OVC,,0.00,122.3,WeatherDisplay:10.37,2013-03-11 12:10:00,
2013-03-11 13:15:00,57.0,39.6,29.53,WSW,248,5.8,5.8,52,0.00,OVC,,0.00,121.4,WeatherDisplay:10.37,2013-03-11 12:15:00,
2013-03-11 13:20:00,56.7,40.7,29.53,WNW,292,8.1,8.1,55,0.00,OVC,,0.00,120.5,WeatherDisplay:10.37,2013-03-11 12:20:00,
2013-03-11 13:25:00,55.8,39.8,29.53,WNW,292,10.4,10.4,55,0.00,OVC,,0.00,119.5,WeatherDisplay:10.37,2013-03-11 12:25:00,
2013-03-11 13:30:00,55.6,39.2,29.53,WNW,292,7.4,7.4,54,0.00,OVC,,0.00,118.3,WeatherDisplay:10.37,2013-03-11 12:30:00,
2013-03-11 13:35:00,55.8,39.8,29.53,WNW,292,6.9,6.9,55,0.00,OVC,,0.00,117.2,WeatherDisplay:10.37,2013-03-11 12:35:00,
2013-03-11 13:40:00,56.1,40.2,29.53,SSW,202,9.2,9.2,55,0.00,OVC,,0.00,116.0,WeatherDisplay:10.37,2013-03-11 12:40:00,
2013-03-11 13:45:00,56.1,41.1,29.53,WNW,292,8.1,8.1,57,0.00,OVC,,0.00,114.7,WeatherDisplay:10.37,2013-03-11 12:45:00,
2013-03-11 13:50:00,55.8,39.8,29.53,NW,315,9.2,9.2,55,0.00,OVC,,0.00,113.4,WeatherDisplay:10.37,2013-03-11 12:50:00,
2013-03-11 13:55:00,55.4,38.5,29.53,WNW,292,9.2,9.2,53,0.00,OVC,,0.00,112.0,WeatherDisplay:10.37,2013-03-11 12:55:00,
2013-03-11 14:00:00,55.8,37.9,29.53,WNW,292,8.1,8.1,51,0.00,OVC,,0.00,110.5,WeatherDisplay:10.37,2013-03-11 13:00:00,
2013-03-11 14:05:00,56.1,38.2,29.53,West,270,8.1,8.1,51,0.00,OVC,,0.00,109.1,WeatherDisplay:10.37,2013-03-11 13:05:00,
2013-03-11 14:10:00,56.7,39.7,29.50,WNW,292,8.1,8.1,53,0.00,OVC,,0.00,107.6,WeatherDisplay:10.37,2013-03-11 13:10:00,
2013-03-11 14:15:00,56.3,37.9,29.50,WNW,292,11.5,11.5,50,0.00,OVC,,0.00,105.9,WeatherDisplay:10.37,2013-03-11 13:15:00,
2013-03-11 14:20:00,56.1,38.7,29.50,NNW,338,6.9,6.9,52,0.00,OVC,,0.00,104.3,WeatherDisplay:10.37,2013-03-11 13:20:00,
2013-03-11 14:25:00,56.1,37.2,29.50,WNW,292,8.5,8.5,49,0.00,OVC,,0.00,102.5,WeatherDisplay:10.37,2013-03-11 13:25:00,
2013-03-11 14:30:00,56.5,38.6,29.50,NNW,338,9.2,9.2,51,0.00,OVC,,0.00,100.7,WeatherDisplay:10.37,2013-03-11 13:30:00,
2013-03-11 14:35:00,56.8,36.8,29.50,NNW,338,9.2,9.2,47,0.00,OVC,,0.00,98.8,WeatherDisplay:10.37,2013-03-11 13:35:00,
2013-03-11 14:40:00,56.5,36.5,29.53,NNW,338,8.1,8.1,47,0.00,OVC,,0.00,97.0,WeatherDisplay:10.37,2013-03-11 13:40:00,
2013-03-11 14:45:00,56.5,37.5,29.53,NNW,338,10.4,10.4,49,0.00,OVC,,0.00,95.0,WeatherDisplay:10.37,2013-03-11 13:45:00,
2013-03-11 14:50:00,56.3,36.8,29.53,NNW,338,8.1,8.1,48,0.00,OVC,,0.00,93.1,WeatherDisplay:10.37,2013-03-11 13:50:00,
2013-03-11 14:55:00,56.3,36.8,29.53,NNE,22,8.1,8.1,48,0.00,OVC,,0.00,91.1,WeatherDisplay:10.37,2013-03-11 13:55:00,
2013-03-11 15:00:00,56.3,37.4,29.53,WSW,248,8.1,8.1,49,0.00,OVC,,0.00,89.1,WeatherDisplay:10.37,2013-03-11 14:00:00,
2013-03-11 15:05:00,56.3,37.4,29.53,NNE,22,10.4,10.4,49,0.00,OVC,,0.00,87.0,WeatherDisplay:10.37,2013-03-11 14:05:00,
2013-03-11 15:10:00,56.1,36.7,29.53,NW,315,3.8,3.8,48,0.00,OVC,,0.00,84.8,WeatherDisplay:10.37,2013-03-11 14:10:00,
2013-03-11 15:15:00,56.3,37.4,29.53,WNW,292,5.8,5.8,49,0.00,OVC,,0.00,82.5,WeatherDisplay:10.37,2013-03-11 14:15:00,
2013-03-11 15:20:00,56.1,37.2,29.53,West,270,6.9,6.9,49,0.00,OVC,,0.00,80.4,WeatherDisplay:10.37,2013-03-11 14:20:00,
2013-03-11 15:25:00,56.1,37.7,29.50,WNW,292,8.1,8.1,50,0.00,OVC,,0.00,78.0,WeatherDisplay:10.37,2013-03-11 14:25:00,
2013-03-11 15:30:00,55.9,37.0,29.50,WNW,292,6.0,6.0,49,0.00,OVC,,0.00,75.7,WeatherDisplay:10.37,2013-03-11 14:30:00,
2013-03-11 15:35:00,56.1,37.7,29.50,NNE,22,9.2,9.2,50,0.00,OVC,,0.00,73.4,WeatherDisplay:10.37,2013-03-11 14:35:00,
2013-03-11 15:40:00,55.9,37.6,29.53,NW,315,6.9,6.9,50,0.00,OVC,,0.00,71.0,WeatherDisplay:10.37,2013-03-11 14:40:00,
2013-03-11 15:45:00,55.6,37.2,29.53,NNW,338,6.9,6.9,50,0.00,OVC,,0.00,68.6,WeatherDisplay:10.37,2013-03-11 14:45:00,
2013-03-11 15:50:00,55.2,37.4,29.53,NNW,338,10.4,10.4,51,0.00,OVC,,0.00,66.2,WeatherDisplay:10.37,2013-03-11 14:50:00,
2013-03-11 15:55:00,55.0,37.7,29.53,NNW,338,10.9,10.9,52,0.00,OVC,,0.00,63.7,WeatherDisplay:10.37,2013-03-11 14:55:00,
2013-03-11 16:00:00,54.7,37.4,29.53,NNW,338,8.1,8.1,52,0.00,OVC,,0.00,61.4,WeatherDisplay:10.37,2013-03-11 15:00:00,
2013-03-11 16:05:00,54.7,37.9,29.53,NNW,338,8.1,8.1,53,0.00,OVC,,0.00,58.7,WeatherDisplay:10.37,2013-03-11 15:05:00,
2013-03-11 16:10:00,54.5,38.2,29.50,North,0,9.2,9.2,54,0.00,OVC,,0.00,56.3,WeatherDisplay:10.37,2013-03-11 15:10:00,
2013-03-11 16:15:00,54.3,38.5,29.50,NW,315,11.5,11.5,55,0.00,OVC,,0.00,53.8,WeatherDisplay:10.37,2013-03-11 15:15:00,
2013-03-11 16:20:00,54.1,38.3,29.50,NNW,338,9.2,9.2,55,0.00,OVC,,0.00,51.1,WeatherDisplay:10.37,2013-03-11 15:20:00,
2013-03-11 16:25:00,54.0,38.1,29.50,NNW,338,9.2,9.2,55,0.00,OVC,,0.00,48.7,WeatherDisplay:10.37,2013-03-11 15:25:00,
2013-03-11 16:30:00,53.6,37.3,29.50,NE,45,10.4,10.4,54,0.00,OVC,,0.00,46.0,WeatherDisplay:10.37,2013-03-11 15:30:00,
2013-03-11 16:35:00,53.2,37.9,29.50,WNW,292,9.2,9.2,56,0.00,OVC,,0.00,43.4,WeatherDisplay:10.37,2013-03-11 15:35:00,
2013-03-11 16:40:00,53.1,38.7,29.56,WNW,292,5.8,5.8,58,0.00,OVC,,0.00,40.8,WeatherDisplay:10.37,2013-03-11 15:40:00,
2013-03-11 16:45:00,53.1,38.7,29.56,WNW,292,8.1,8.1,58,0.00,OVC,,0.00,38.1,WeatherDisplay:10.37,2013-03-11 15:45:00,
2013-03-11 16:50:00,52.9,38.5,29.56,NW,315,8.1,8.1,58,0.00,OVC,,0.00,35.6,WeatherDisplay:10.37,2013-03-11 15:50:00,
2013-03-11 16:56:00,52.7,38.3,29.56,NNW,338,6.9,6.9,58,0.00,OVC,,0.00,33.0,WeatherDisplay:10.37,2013-03-11 15:56:00,
2013-03-11 17:01:00,52.5,38.6,29.56,WSW,248,6.9,6.9,59,0.00,OVC,,0.00,30.4,WeatherDisplay:10.37,2013-03-11 16:01:00,
2013-03-11 17:06:00,52.3,38.4,29.56,WNW,292,6.9,6.9,59,0.00,OVC,,0.00,27.7,WeatherDisplay:10.37,2013-03-11 16:06:00,
2013-03-11 17:11:00,52.2,38.3,29.53,WNW,292,8.1,8.1,59,0.00,OVC,,0.00,25.1,WeatherDisplay:10.37,2013-03-11 16:11:00,
2013-03-11 17:16:00,51.8,38.3,29.53,NNW,338,5.8,5.8,60,0.00,OVC,,0.00,22.4,WeatherDisplay:10.37,2013-03-11 16:16:00,
2013-03-11 17:21:00,51.6,38.2,29.53,NNE,22,5.9,5.9,60,0.00,OVC,,0.00,19.8,WeatherDisplay:10.37,2013-03-11 16:21:00,
2013-03-11 17:26:00,51.4,38.8,29.53,NNW,338,5.8,5.8,62,0.00,OVC,,0.00,17.2,WeatherDisplay:10.37,2013-03-11 16:26:00,
2013-03-11 17:31:00,51.4,38.4,29.53,NW,315,5.9,5.9,61,0.00,OVC,,0.00,14.5,WeatherDisplay:10.37,2013-03-11 16:31:00,
2013-03-11 17:36:00,51.1,38.5,29.53,NNW,338,3.8,4.0,62,0.00,OVC,,0.00,11.9,WeatherDisplay:10.37,2013-03-11 16:36:00,
2013-03-11 17:41:00,50.9,38.7,29.53,WNW,292,4.0,4.0,63,0.00,OVC,,0.00,9.2,WeatherDisplay:10.37,2013-03-11 16:41:00,
2013-03-11 17:46:00,50.5,38.4,29.53,NNW,338,3.5,3.5,63,0.00,OVC,,0.00,6.6,WeatherDisplay:10.37,2013-03-11 16:46:00,
2013-03-11 17:51:00,50.4,38.6,29.53,WNW,292,3.6,3.6,64,0.00,OVC,,0.00,4.1,WeatherDisplay:10.37,2013-03-11 16:51:00,
2013-03-11 17:56:00,50.0,38.3,29.53,NNW,338,3.5,3.5,64,0.00,OVC,,0.00,1.5,WeatherDisplay:10.37,2013-03-11 16:56:00,
2013-03-11 18:01:00,49.8,38.5,29.53,WNW,292,4.6,4.6,65,0.00,CLR,,0.00,0.0,WeatherDisplay:10.37,2013-03-11 17:01:00,
2013-03-11 18:06:00,49.5,38.2,29.53,NW,315,4.9,4.9,65,0.00,CLR,,0.00,0.0,WeatherDisplay:10.37,2013-03-11 17:06:00,
2013-03-11 18:11:00,49.3,38.0,29.53,North,0,5.8,5.8,65,0.00,CLR,,0.00,0.0,WeatherDisplay:10.37,2013-03-11 17:11:00,
2013-03-11 18:16:00,49.3,37.6,29.53,NNW,338,6.9,6.9,64,0.00,CLR,,0.00,0.0,WeatherDisplay:10.37,2013-03-11 17:16:00,
2013-03-11 18:21:00,49.1,37.4,29.53,WNW,292,6.9,6.9,64,0.00,CLR,,0.00,0.0,WeatherDisplay:10.37,2013-03-11 17:21:00,
2013-03-11 18:26:00,49.1,37.4,29.53,WNW,292,5.8,6.0,64,0.00,CLR,,0.00,0.0,WeatherDisplay:10.37,2013-03-11 17:26:00,
2013-03-11 18:31:00,48.9,37.3,29.53,NW,315,5.8,5.8,64,0.00,CLR,,0.00,0.0,WeatherDisplay:10.37,2013-03-11 17:31:00,
2013-03-11 18:36:00,48.9,37.3,29.53,NNW,338,6.9,6.9,64,0.00,CLR,,0.00,0.0,WeatherDisplay:10.37,2013-03-11 17:36:00,
2013-03-11 18:41:00,48.7,37.1,29.50,WNW,292,4.7,4.7,64,0.00,CLR,,0.00,0.0,WeatherDisplay:10.37,2013-03-11 17:41:00,
2013-03-11 18:46:00,48.4,37.2,29.50,NW,315,4.6,4.6,65,0.00,CLR,,0.00,0.0,WeatherDisplay:10.37,2013-03-11 17:46:00,
2013-03-11 18:51:00,48.2,37.0,29.50,NNE,22,5.8,5.8,65,0.00,CLR,,0.00,0.0,WeatherDisplay:10.37,2013-03-11 17:51:00,
2013-03-11 18:56:00,48.0,37.2,29.50,NNW,338,7.1,7.1,66,0.00,CLR,,0.00,0.0,WeatherDisplay:10.37,2013-03-11 17:56:00,
2013-03-11 19:01:00,47.8,37.0,29.50,NNE,22,6.9,6.9,66,0.00,CLR,,0.00,0.0,WeatherDisplay:10.37,2013-03-11 18:01:00,
2013-03-11 19:06:00,47.8,37.0,29.50,NNW,338,5.8,5.8,66,0.00,CLR,,0.00,0.0,WeatherDisplay:10.37,2013-03-11 18:06:00,
2013-03-11 19:11:00,47.7,36.9,29.53,WNW,292,4.6,4.6,66,0.00,CLR,,0.00,0.0,WeatherDisplay:10.37,2013-03-11 18:11:00,
2013-03-11 19:16:00,47.5,36.7,29.53,NNW,338,4.6,4.6,66,0.00,CLR,,0.00,0.0,WeatherDisplay:10.37,2013-03-11 18:16:00,
2013-03-11 19:21:00,47.3,36.9,29.53,NNW,338,4.6,4.6,67,0.00,CLR,,0.00,0.0,WeatherDisplay:10.37,2013-03-11 18:21:00,
2013-03-11 19:26:00,47.1,36.7,29.56,NNW,338,4.6,4.6,67,0.00,CLR,,0.00,0.0,WeatherDisplay:10.37,2013-03-11 18:26:00,
2013-03-11 19:31:00,46.9,36.5,29.56,NNW,338,4.6,4.6,67,0.00,CLR,,0.00,0.0,WeatherDisplay:10.37,2013-03-11 18:31:00,
2013-03-11 19:36:00,46.9,36.5,29.56,NNW,338,3.5,3.5,67,0.00,CLR,,0.00,0.0,WeatherDisplay:10.37,2013-03-11 18:36:00,
2013-03-11 19:41:00,46.6,36.6,29.53,NNW,338,3.5,3.5,68,0.00,CLR,,0.00,0.0,WeatherDisplay:10.37,2013-03-11 18:41:00,
2013-03-11 19:46:00,46.4,36.4,29.53,WNW,292,1.2,1.4,68,0.00,CLR,,0.00,0.0,WeatherDisplay:10.37,2013-03-11 18:46:00,
2013-03-11 19:51:00,46.0,36.4,29.53,WNW,292,2.3,2.3,69,0.00,CLR,,0.00,0.0,WeatherDisplay:10.37,2013-03-11 18:51:00,
2013-03-11 19:56:00,45.7,36.1,29.53,NNW,338,2.3,2.3,69,0.00,CLR,,0.00,0.0,WeatherDisplay:10.37,2013-03-11 18:56:00,
2013-03-11 20:01:00,45.3,35.7,29.53,WNW,292,2.3,2.3,69,0.00,CLR,,0.00,0.0,WeatherDisplay:10.37,2013-03-11 19:01:00,
2013-03-11 20:07:00,45.0,35.8,29.59,WNW,292,3.5,3.5,70,0.00,CLR,,0.00,0.0,WeatherDisplay:10.37,2013-03-11 19:07:00,
2013-03-11 20:12:00,44.8,35.6,29.59,NNW,338,2.6,2.6,70,0.00,CLR,,0.00,0.0,WeatherDisplay:10.37,2013-03-11 19:12:00,
2013-03-11 20:17:00,44.4,35.6,29.59,WNW,292,3.5,3.5,71,0.00,CLR,,0.00,0.0,WeatherDisplay:10.37,2013-03-11 19:17:00,
2013-03-11 20:22:00,44.2,35.4,29.59,WNW,292,2.4,2.4,71,0.00,CLR,,0.00,0.0,WeatherDisplay:10.37,2013-03-11 19:22:00,
2013-03-11 20:27:00,44.2,35.8,29.59,NNW,338,3.5,3.5,72,0.00,CLR,,0.00,0.0,WeatherDisplay:10.37,2013-03-11 19:27:00,
2013-03-11 20:32:00,44.2,35.8,29.59,NNW,338,3.6,3.6,72,0.00,CLR,,0.00,0.0,WeatherDisplay:10.37,2013-03-11 19:32:00,
2013-03-11 20:37:00,44.2,35.8,29.59,NW,315,3.5,3.5,72,0.00,CLR,,0.00,0.0,WeatherDisplay:10.37,2013-03-11 19:37:00,
2013-03-11 20:42:00,44.2,35.8,29.59,NNW,338,3.5,3.5,72,0.00,CLR,,0.00,0.0,WeatherDisplay:10.37,2013-03-11 19:42:00,
2013-03-11 20:47:00,44.2,35.4,29.59,NNW,338,3.5,3.5,71,0.00,CLR,,0.00,0.0,WeatherDisplay:10.37,2013-03-11 19:47:00,
2013-03-11 20:52:00,44.2,35.4,29.56,NNW,338,3.1,3.1,71,0.00,CLR,,0.00,0.0,WeatherDisplay:10.37,2013-03-11 19:52:00,
2013-03-11 20:57:00,44.2,35.4,29.56,West,270,2.3,2.3,71,0.00,CLR,,0.00,0.0,WeatherDisplay:10.37,2013-03-11 19:57:00,
2013-03-11 21:02:00,44.1,35.3,29.56,WNW,292,1.2,1.2,71,0.00,CLR,,0.00,0.0,WeatherDisplay:10.37,2013-03-11 20:02:00,
2013-03-11 21:07:00,43.9,35.1,29.59,WNW,292,2.3,0.0,71,0.00,CLR,,0.00,0.0,WeatherDisplay:10.37,2013-03-11 20:07:00,
2013-03-11 21:12:00,43.7,34.9,29.59,NNW,338,2.3,2.3,71,0.00,CLR,,0.00,0.0,WeatherDisplay:10.37,2013-03-11 20:12:00,
2013-03-11 21:17:00,43.5,34.7,29.59,North,0,1.2,0.0,71,0.00,CLR,,0.00,0.0,WeatherDisplay:10.37,2013-03-11 20:17:00,
2013-03-11 21:22:00,43.3,34.6,29.59,NE,45,0.0,0.0,71,0.00,CLR,,0.00,0.0,WeatherDisplay:10.37,2013-03-11 20:22:00,
2013-03-11 21:27:00,43.0,34.6,29.59,NNW,338,0.0,0.0,72,0.00,CLR,,0.00,0.0,WeatherDisplay:10.37,2013-03-11 20:27:00,
2013-03-11 21:32:00,42.6,34.6,29.59,WNW,292,1.6,1.6,73,0.00,CLR,,0.00,0.0,WeatherDisplay:10.37,2013-03-11 20:32:00,
2013-03-11 21:37:00,42.3,34.2,29.59,NW,315,1.2,0.0,73,0.00,CLR,,0.00,0.0,WeatherDisplay:10.37,2013-03-11 20:37:00,
2013-03-11 21:43:00,41.9,34.2,29.59,WNW,292,0.0,0.0,74,0.00,CLR,,0.00,0.0,WeatherDisplay:10.37,2013-03-11 20:43:00,
2013-03-11 21:48:00,41.5,33.9,29.59,WNW,292,0.0,0.0,74,0.00,CLR,,0.00,0.0,WeatherDisplay:10.37,2013-03-11 20:48:00,
2013-03-11 21:53:00,41.2,33.5,29.56,WNW,292,0.0,0.0,74,0.00,CLR,,0.00,0.0,WeatherDisplay:10.37,2013-03-11 20:53:00,
2013-03-11 21:58:00,41.0,33.3,29.56,NNW,338,0.0,0.0,74,0.00,CLR,,0.00,0.0,WeatherDisplay:10.37,2013-03-11 20:58:00,
2013-03-11 22:03:00,40.6,33.3,29.56,NNW,338,0.0,0.0,75,0.00,CLR,,0.00,0.0,WeatherDisplay:10.37,2013-03-11 21:03:00,
2013-03-11 22:08:00,40.6,33.3,29.56,NNW,338,0.0,0.0,75,0.00,CLR,,0.00,0.0,WeatherDisplay:10.37,2013-03-11 21:08:00,
2013-03-11 22:13:00,40.3,33.0,29.56,North,0,0.0,0.0,75,0.00,CLR,,0.00,0.0,WeatherDisplay:10.37,2013-03-11 21:13:00,
2013-03-11 22:18:00,40.1,32.8,29.56,NNE,22,0.0,0.0,75,0.00,CLR,,0.00,0.0,WeatherDisplay:10.37,2013-03-11 21:18:00,
2013-03-11 22:23:00,39.9,33.0,29.56,NNW,338,0.0,0.0,76,0.00,CLR,,0.00,0.0,WeatherDisplay:10.37,2013-03-11 21:23:00,
2013-03-11 22:28:00,39.7,32.8,29.56,NNW,338,0.0,0.0,76,0.00,CLR,,0.00,0.0,WeatherDisplay:10.37,2013-03-11 21:28:00,
2013-03-11 22:33:00,39.6,32.6,29.56,NNW,338,0.0,0.0,76,0.00,CLR,,0.00,0.0,WeatherDisplay:10.37,2013-03-11 21:33:00,
2013-03-11 22:38:00,39.2,32.6,29.56,NNW,338,0.0,0.0,77,0.00,CLR,,0.00,0.0,WeatherDisplay:10.37,2013-03-11 21:38:00,
2013-03-11 22:43:00,39.0,32.4,29.56,NNW,338,0.0,0.0,77,0.00,CLR,,0.00,0.0,WeatherDisplay:10.37,2013-03-11 21:43:00,
2013-03-11 22:48:00,38.8,32.2,29.56,ENE,68,0.0,0.0,77,0.00,CLR,,0.00,0.0,WeatherDisplay:10.37,2013-03-11 21:48:00,
2013-03-11 22:53:00,38.5,31.9,29.56,ENE,68,0.0,0.0,77,0.00,CLR,,0.00,0.0,WeatherDisplay:10.37,2013-03-11 21:53:00,
2013-03-11 22:58:00,38.3,32.0,29.56,NE,45,3.5,0.0,78,0.00,CLR,,0.00,0.0,WeatherDisplay:10.37,2013-03-11 21:58:00,
2013-03-11 23:03:00,38.3,32.0,29.56,NNE,22,2.3,2.3,78,0.00,CLR,,0.00,0.0,WeatherDisplay:10.37,2013-03-11 22:03:00,
2013-03-11 23:08:00,38.1,31.9,29.56,NNW,338,2.4,2.4,78,0.00,CLR,,0.00,0.0,WeatherDisplay:10.37,2013-03-11 22:08:00,
2013-03-11 23:13:00,38.1,31.9,29.56,North,0,3.5,3.5,78,0.00,CLR,,0.00,0.0,WeatherDisplay:10.37,2013-03-11 22:13:00,
2013-03-11 23:18:00,38.7,32.7,29.56,NNW,338,4.6,4.6,79,0.00,CLR,,0.00,0.0,WeatherDisplay:10.37,2013-03-11 22:18:00,
2013-03-11 23:23:00,38.8,32.6,29.56,NNW,338,4.6,4.6,78,0.00,CLR,,0.00,0.0,WeatherDisplay:10.37,2013-03-11 22:23:00,
2013-03-11 23:28:00,39.4,32.8,29.56,NNW,338,4.6,4.6,77,0.00,CLR,,0.00,0.0,WeatherDisplay:10.37,2013-03-11 22:28:00,
2013-03-11 23:33:00,39.6,32.9,29.56,NNE,22,3.5,3.5,77,0.00,CLR,,0.00,0.0,WeatherDisplay:10.37,2013-03-11 22:33:00,
2013-03-11 23:38:00,39.6,32.6,29.56,NNW,338,2.3,0.0,76,0.00,CLR,,0.00,0.0,WeatherDisplay:10.37,2013-03-11 22:38:00,
2013-03-11 23:43:00,39.7,32.8,29.56,NNW,338,0.0,0.0,76,0.00,CLR,,0.00,0.0,WeatherDisplay:10.37,2013-03-11 22:43:00,
2013-03-11 23:48:00,39.6,32.6,29.56,NNW,338,2.3,2.3,76,0.00,CLR,,0.00,0.0,WeatherDisplay:10.37,2013-03-11 22:48:00,
2013-03-11 23:53:00,39.4,32.4,29.56,NNE,22,2.2,2.2,76,0.00,CLR,,0.00,0.0,WeatherDisplay:10.37,2013-03-11 22:53:00,
2013-03-11 23:58:00,39.2,31.9,29.56,NNE,22,2.4,2.4,75,0.00,CLR,,0.00,0.0,WeatherDisplay:10.37,2013-03-11 22:58:00,